Time;durP1;ratioP1;P1;durP2;ratioP2;P2;SDS_P1;SDS_P2;PMS_P1;PMS_P2;Temp;Humidity;BMP_temperature;BMP_pressure;BME280_temperature;BME280_humidity;BME280_pressure;Samples;Min_cycle;Max_cycle;Signal;HPM_P1;HPM_P2
2022/05/18 00:01:56;;;;;;;;;;;;;;;;;;5046962;28;19971;-71
2022/05/18 00:04:22;;;;;;;;;;;;;;;;;;5047249;28;19929;-71
2022/05/18 00:06:48;;;;;;;;;;;;;;;;;;5046936;28;19922;-71
2022/05/18 00:09:14;;;;;;;;;;;;;;;;;;5047015;28;19960;-71
2022/05/18 00:11:40;;;;;;;;;;;;;;;;;;5046797;28;20268;-71
2022/05/18 00:14:06;;;;;;;;;;;;;;;;;;5048104;28;19921;-71
2022/05/18 00:16:32;;;;;;;;;;;;;;;;;;5050851;28;20065;-71
2022/05/18 00:18:58;;;;;;;;;;;;;;;;;;5050851;28;19922;-71
2022/05/18 00:21:25;;;;;;;;;;;;;;;;;;5050236;28;19925;-71
2022/05/18 00:23:51;;;;;;;;;;;;;;;;;;5050910;28;19931;-71
2022/05/18 00:26:17;;;;;;;;;;;;;;;;;;5050775;28;20011;-71
2022/05/18 00:28:43;;;;;;;;;;;;;;;;;;5033755;28;19982;-71
2022/05/18 00:31:09;;;;;;;;;;;;;;;;;;5033955;28;19921;-71
2022/05/18 00:33:35;;;;;;;;;;;;;;;;;;5034036;28;19921;-71
2022/05/18 00:36:00;;;;;;;;;;;;;;;;;;5033367;28;19943;-71
2022/05/18 00:38:26;;;;;;;;;;;;;;;;;;5033833;28;19925;-71
2022/05/18 00:40:53;;;;;;;;;;;;;;;;;;5033658;28;19933;-71
2022/05/18 00:43:19;;;;;;;;;;;;;;;;;;5033205;28;19932;-71
2022/05/18 00:45:45;;;;;;;;;;;;;;;;;;5050491;28;20299;-71
2022/05/18 00:48:11;;;;;;;;;;;;;;;;;;5033736;28;19955;-71
2022/05/18 00:50:37;;;;;;;;;;;;;;;;;;5033169;28;20347;-71
2022/05/18 00:53:03;;;;;;;;;;;;;;;;;;5033652;28;19928;-71
2022/05/18 00:55:29;;;;;;;;;;;;;;;;;;5050341;28;19974;-71
2022/05/18 00:57:55;;;;;;;;;;;;;;;;;;5032748;28;20074;-71
2022/05/18 01:00:21;;;;;;;;;;;;;;;;;;5033419;28;19951;-71
2022/05/18 01:02:47;;;;;;;;;;;;;;;;;;5033500;28;19921;-71
2022/05/18 01:05:13;;;;;;;;;;;;;;;;;;5032870;28;20390;-71
2022/05/18 01:07:39;;;;;;;;;;;;;;;;;;5033320;28;20314;-71
2022/05/18 01:10:05;;;;;;;;;;;;;;;;;;5033266;28;19980;-71
2022/05/18 01:12:31;;;;;;;;;;;;;;;;;;5032677;28;19967;-71
2022/05/18 01:14:57;;;;;;;;;;;;;;;;;;5034980;28;19929;-71
2022/05/18 01:17:23;;;;;;;;;;;;;;;;;;5033227;28;19948;-71
2022/05/18 01:19:49;;;;;;;;;;;;;;;;;;5032655;28;19921;-71
2022/05/18 01:22:15;;;;;;;;;;;;;;;;;;5033295;28;20380;-71
2022/05/18 01:24:41;;;;;;;;;;;;;;;;;;5033062;28;19936;-71
2022/05/18 01:27:07;;;;;;;;;;;;;;;;;;5031871;28;20023;-71
2022/05/18 01:29:33;;;;;;;;;;;;;;;;;;5034481;28;19929;-71
2022/05/18 01:31:59;;;;;;;;;;;;;;;;;;5033034;28;19982;-71
2022/05/18 01:34:24;;;;;;;;;;;;;;;;;;5032392;28;19971;-71
2022/05/18 01:36:50;;;;;;;;;;;;;;;;;;5016496;28;19987;-71
2022/05/18 01:39:16;;;;;;;;;;;;;;;;;;5032378;28;19920;-71
2022/05/18 01:41:42;;;;;;;;;;;;;;;;;;5032233;28;19933;-71
2022/05/18 01:44:08;;;;;;;;;;;;;;;;;;5032758;28;19947;-71
2022/05/18 01:46:34;;;;;;;;;;;;;;;;;;5032768;28;20004;-71
2022/05/18 01:49:00;;;;;;;;;;;;;;;;;;5032237;28;19921;-71
2022/05/18 01:51:26;;;;;;;;;;;;;;;;;;5032749;28;19921;-71
2022/05/18 01:53:52;;;;;;;;;;;;;;;;;;5032751;28;19925;-71
2022/05/18 01:56:18;;;;;;;;;;;;;;;;;;5032057;28;19925;-71
2022/05/18 01:58:45;;;;;;;;;;;;;;;;;;5032605;28;19924;-71
2022/05/18 02:01:11;;;;;;;;;;;;;;;;;;5034014;28;19952;-71
2022/05/18 02:03:37;;;;;;;;;;;;;;;;;;5031698;28;19921;-71
2022/05/18 02:06:03;;;;;;;;;;;;;;;;;;5032392;28;19925;-71
2022/05/18 02:08:29;;;;;;;;;;;;;;;;;;5032153;28;19921;-71
2022/05/18 02:10:55;;;;;;;;;;;;;;;;;;5015065;28;19944;-71
2022/05/18 02:13:21;;;;;;;;;;;;;;;;;;5032451;28;19975;-71
2022/05/18 02:15:47;;;;;;;;;;;;;;;;;;5015941;28;19927;-71
2022/05/18 02:18:13;;;;;;;;;;;;;;;;;;5032991;28;20030;-71
2022/05/18 02:20:39;;;;;;;;;;;;;;;;;;5033310;28;20015;-71
2022/05/18 02:23:05;;;;;;;;;;;;;;;;;;5015451;28;19998;-71
2022/05/18 02:25:32;;;;;;;;;;;;;;;;;;5031663;28;19921;-71
2022/05/18 02:27:58;;;;;;;;;;;;;;;;;;5032000;28;19921;-71
2022/05/18 02:30:24;;;;;;;;;;;;;;;;;;5031766;28;20430;-71
2022/05/18 02:32:50;;;;;;;;;;;;;;;;;;5031220;28;20015;-71
2022/05/18 02:35:16;;;;;;;;;;;;;;;;;;5031970;28;19921;-71
2022/05/18 02:37:42;;;;;;;;;;;;;;;;;;5031651;28;19940;-71
2022/05/18 02:40:08;;;;;;;;;;;;;;;;;;5030870;28;20024;-71
2022/05/18 02:42:34;;;;;;;;;;;;;;;;;;5031635;28;19995;-71
2022/05/18 02:44:59;;;;;;;;;;;;;;;;;;5031593;28;19923;-71
2022/05/18 02:47:26;;;;;;;;;;;;;;;;;;5032271;28;19924;-71
2022/05/18 02:49:52;;;;;;;;;;;;;;;;;;5032834;28;19925;-71
2022/05/18 02:52:18;;;;;;;;;;;;;;;;;;5032819;28;19987;-71
2022/05/18 02:57:30;;;;;;;;;;;;;;;;;;5031263;28;20303;-71
2022/05/18 02:59:56;;;;;;;;;;;;;;;;;;5031222;28;19932;-71
2022/05/18 03:02:22;;;;;;;;;;;;;;;;;;5030720;28;19933;-71
2022/05/18 03:04:48;;;;;;;;;;;;;;;;;;5031233;28;19921;-71
2022/05/18 03:07:14;;;;;;;;;;;;;;;;;;5014698;28;20034;-71
2022/05/18 03:09:40;;;;;;;;;;;;;;;;;;5030441;28;20054;-70
2022/05/18 03:12:06;;;;;;;;;;;;;;;;;;5031202;28;19921;-70
2022/05/18 03:14:32;;;;;;;;;;;;;;;;;;5032638;28;19924;-70
2022/05/18 03:16:58;;;;;;;;;;;;;;;;;;5030337;28;19964;-70
2022/05/18 03:19:24;;;;;;;;;;;;;;;;;;5030953;28;19921;-70
2022/05/18 03:24:34;;;;;;;;;;;;;;;;;;5030360;28;20554;-70
2022/05/18 03:27:00;;;;;;;;;;;;;;;;;;5030990;28;19921;-71
2022/05/18 03:29:26;;;;;;;;;;;;;;;;;;5032196;28;19925;-71
2022/05/18 03:31:52;;;;;;;;;;;;;;;;;;5030115;28;19933;-71
2022/05/18 03:34:18;;;;;;;;;;;;;;;;;;5030854;28;19921;-71
2022/05/18 03:36:44;;;;;;;;;;;;;;;;;;5030439;28;19921;-71
2022/05/18 03:39:10;;;;;;;;;;;;;;;;;;5029846;28;20003;-71
2022/05/18 03:41:36;;;;;;;;;;;;;;;;;;5030528;28;20007;-71
2022/05/18 03:44:02;;;;;;;;;;;;;;;;;;5030597;28;20075;-71
2022/05/18 03:46:28;;;;;;;;;;;;;;;;;;5030141;28;19925;-71
2022/05/18 03:48:54;;;;;;;;;;;;;;;;;;5029910;28;19983;-71
2022/05/18 03:51:20;;;;;;;;;;;;;;;;;;5030648;28;19952;-71
2022/05/18 03:53:46;;;;;;;;;;;;;;;;;;5030908;28;20371;-71
2022/05/18 03:56:13;;;;;;;;;;;;;;;;;;5030191;28;19932;-71
2022/05/18 03:58:40;;;;;;;;;;;;;;;;;;5030648;28;19929;-71
2022/05/18 04:01:09;;;;;;;;;;;;;;;;;;5031922;28;19924;-71
2022/05/18 04:03:35;;;;;;;;;;;;;;;;;;5029915;28;19921;-71
2022/05/18 04:06:01;;;;;;;;;;;;;;;;;;5030373;28;20011;-71
2022/05/18 04:08:27;;;;;;;;;;;;;;;;;;5030347;28;19976;-71
2022/05/18 04:10:53;;;;;;;;;;;;;;;;;;5029695;28;19921;-71
2022/05/18 04:13:20;;;;;;;;;;;;;;;;;;5030438;28;19935;-71
2022/05/18 04:15:46;;;;;;;;;;;;;;;;;;5030291;28;19921;-71
2022/05/18 04:18:12;;;;;;;;;;;;;;;;;;5029606;28;20446;-71
2022/05/18 04:20:38;;;;;;;;;;;;;;;;;;5030251;28;20004;-71
2022/05/18 04:23:04;;;;;;;;;;;;;;;;;;5030380;28;19933;-70
2022/05/18 04:25:30;;;;;;;;;;;;;;;;;;5029730;28;19921;-70
2022/05/18 04:27:56;;;;;;;;;;;;;;;;;;5029997;28;19986;-70
2022/05/18 04:30:23;;;;;;;;;;;;;;;;;;5030089;28;19936;-70
2022/05/18 04:32:49;;;;;;;;;;;;;;;;;;5030752;28;19955;-70
2022/05/18 04:35:15;;;;;;;;;;;;;;;;;;5031273;28;20615;-70
2022/05/18 04:37:41;;;;;;;;;;;;;;;;;;5029591;28;20043;-70
2022/05/18 04:40:07;;;;;;;;;;;;;;;;;;5029450;28;19925;-70
2022/05/18 04:42:33;;;;;;;;;;;;;;;;;;5029965;28;19937;-70
2022/05/18 04:44:59;;;;;;;;;;;;;;;;;;5029999;28;19921;-70
2022/05/18 04:47:25;;;;;;;;;;;;;;;;;;5029273;28;19943;-70
2022/05/18 04:49:51;;;;;;;;;;;;;;;;;;5013533;28;19968;-70
2022/05/18 04:52:17;;;;;;;;;;;;;;;;;;5013253;28;19987;-70
2022/05/18 04:54:43;;;;;;;;;;;;;;;;;;5012889;28;19925;-70
2022/05/18 04:57:09;;;;;;;;;;;;;;;;;;5029913;28;20024;-70
2022/05/18 04:59:35;;;;;;;;;;;;;;;;;;5013361;28;19925;-70
2022/05/18 05:02:02;;;;;;;;;;;;;;;;;;5032225;28;20051;-70
2022/05/18 05:04:28;;;;;;;;;;;;;;;;;;5033573;28;19928;-70
2022/05/18 05:06:54;;;;;;;;;;;;;;;;;;5033419;28;20296;-70
2022/05/18 05:09:22;;;;;;;;;;;;;;;;;;5030879;28;19921;-71
2022/05/18 05:11:48;;;;;;;;;;;;;;;;;;5034129;28;19928;-71
2022/05/18 05:14:14;;;;;;;;;;;;;;;;;;5033082;28;19922;-71
2022/05/18 05:16:40;;;;;;;;;;;;;;;;;;5031739;28;19921;-71
2022/05/18 05:19:06;;;;;;;;;;;;;;;;;;5032501;28;19975;-71
2022/05/18 05:21:32;;;;;;;;;;;;;;;;;;5032724;28;19972;-71
2022/05/18 05:23:58;;;;;;;;;;;;;;;;;;5032427;28;19944;-71
2022/05/18 05:26:24;;;;;;;;;;;;;;;;;;5033031;28;19960;-71
2022/05/18 05:28:49;;;;;;;;;;;;;;;;;;5032957;28;19921;-71
2022/05/18 05:31:15;;;;;;;;;;;;;;;;;;5032104;28;19921;-70
2022/05/18 05:33:41;;;;;;;;;;;;;;;;;;5032636;28;19975;-71
2022/05/18 05:36:07;;;;;;;;;;;;;;;;;;5032914;28;19977;-72
2022/05/18 05:38:33;;;;;;;;;;;;;;;;;;5032561;28;19928;-72
2022/05/18 05:41:00;;;;;;;;;;;;;;;;;;5032193;28;19925;-72
2022/05/18 05:43:26;;;;;;;;;;;;;;;;;;5031911;28;19925;-71
2022/05/18 05:45:52;;;;;;;;;;;;;;;;;;5029234;28;19924;-71
2022/05/18 05:48:18;;;;;;;;;;;;;;;;;;5033492;28;19921;-71
2022/05/18 05:50:43;;;;;;;;;;;;;;;;;;5032654;28;19944;-71
2022/05/18 05:53:09;;;;;;;;;;;;;;;;;;5031481;28;19994;-71
2022/05/18 05:55:35;;;;;;;;;;;;;;;;;;5032165;28;19921;-71
2022/05/18 05:58:01;;;;;;;;;;;;;;;;;;5032296;28;19925;-71
2022/05/18 06:00:27;;;;;;;;;;;;;;;;;;5031682;28;19964;-71
2022/05/18 06:02:53;;;;;;;;;;;;;;;;;;5032364;28;19922;-71
2022/05/18 06:05:19;;;;;;;;;;;;;;;;;;5032167;28;19928;-71
2022/05/18 06:07:45;;;;;;;;;;;;;;;;;;5033133;28;19987;-71
2022/05/18 06:10:11;;;;;;;;;;;;;;;;;;5031831;28;19928;-71
2022/05/18 06:12:38;;;;;;;;;;;;;;;;;;5031760;28;19991;-71
2022/05/18 06:15:04;;;;;;;;;;;;;;;;;;5031240;28;20359;-71
2022/05/18 06:17:30;;;;;;;;;;;;;;;;;;5032264;28;19921;-71
2022/05/18 06:19:56;;;;;;;;;;;;;;;;;;5031433;28;19921;-71
2022/05/18 06:22:22;;;;;;;;;;;;;;;;;;5031119;28;19929;-71
2022/05/18 06:24:51;;;;;;;;;;;;;;;;;;5031341;28;19925;-71
2022/05/18 06:27:17;;;;;;;;;;;;;;;;;;5031321;28;20016;-70
2022/05/18 06:29:43;;;;;;;;;;;;;;;;;;5031077;28;20067;-72
2022/05/18 06:32:09;;;;;;;;;;;;;;;;;;5026211;28;19976;-72
2022/05/18 06:34:35;;;;;;;;;;;;;;;;;;5029922;28;19951;-72
2022/05/18 06:37:03;;;;;;;;;;;;;;;;;;5030862;28;19932;-71
2022/05/18 06:39:29;;;;;;;;;;;;;;;;;;5030697;28;19921;-72
2022/05/18 06:41:55;;;;;;;;;;;;;;;;;;5030788;28;19932;-72
2022/05/18 06:44:21;;;;;;;;;;;;;;;;;;5027296;28;20031;-72
2022/05/18 06:46:47;;;;;;;;;;;;;;;;;;5029966;28;19928;-71
2022/05/18 06:49:13;;;;;;;;;;;;;;;;;;5030871;28;19976;-70
2022/05/18 06:51:39;;;;;;;;;;;;;;;;;;5029954;28;19956;-71
2022/05/18 06:54:05;;;;;;;;;;;;;;;;;;5030329;28;20046;-74
2022/05/18 06:56:31;;;;;;;;;;;;;;;;;;5030042;28;19951;-75
2022/05/18 06:58:57;;;;;;;;;;;;;;;;;;5029909;28;19921;-74
2022/05/18 07:01:23;;;;;;;;;;;;;;;;;;5028695;28;19947;-73
2022/05/18 07:03:49;;;;;;;;;;;;;;;;;;5027656;28;20041;-74
2022/05/18 07:06:15;;;;;;;;;;;;;;;;;;5028965;28;19921;-74
2022/05/18 07:08:41;;;;;;;;;;;;;;;;;;5031056;28;20012;-73
2022/05/18 07:11:07;;;;;;;;;;;;;;;;;;5029475;28;19956;-72
2022/05/18 07:13:33;;;;;;;;;;;;;;;;;;5028420;28;20039;-74
2022/05/18 07:15:59;;;;;;;;;;;;;;;;;;5029061;28;19925;-74
2022/05/18 07:18:25;;;;;;;;;;;;;;;;;;5028957;28;19921;-74
2022/05/18 07:20:51;;;;;;;;;;;;;;;;;;5029318;28;19925;-74
2022/05/18 07:23:17;;;;;;;;;;;;;;;;;;5027559;28;19928;-73
2022/05/18 07:25:43;;;;;;;;;;;;;;;;;;5029090;28;19968;-73
2022/05/18 07:28:09;;;;;;;;;;;;;;;;;;5028864;28;20004;-72
2022/05/18 07:30:36;;;;;;;;;;;;;;;;;;5029520;28;20011;-73
2022/05/18 07:33:02;;;;;;;;;;;;;;;;;;5028048;28;20419;-73
2022/05/18 07:35:28;;;;;;;;;;;;;;;;;;5030014;28;20008;-73
2022/05/18 07:37:54;;;;;;;;;;;;;;;;;;5029529;28;19939;-73
2022/05/18 07:40:20;;;;;;;;;;;;;;;;;;5031286;28;19935;-73
2022/05/18 07:42:48;;;;;;;;;;;;;;;;;;5023749;28;21318;-73
2022/05/18 07:45:14;;;;;;;;;;;;;;;;;;5026997;28;20348;-72
2022/05/18 07:47:40;;;;;;;;;;;;;;;;;;5029551;28;20265;-72
2022/05/18 07:50:06;;;;;;;;;;;;;;;;;;5031205;28;19921;-72
2022/05/18 07:52:32;;;;;;;;;;;;;;;;;;5028333;28;20502;-73
2022/05/18 07:54:58;;;;;;;;;;;;;;;;;;5043145;28;19964;-73
2022/05/18 07:57:24;;;;;;;;;;;;;;;;;;5023180;28;19921;-73
2022/05/18 07:59:50;;;;;;;;;;;;;;;;;;5042502;28;20277;-73
2022/05/18 08:02:16;;;;;;;;;;;;;;;;;;5027797;28;19943;-72
2022/05/18 08:04:42;;;;;;;;;;;;;;;;;;5030901;28;19921;-72
2022/05/18 08:07:09;;;;;;;;;;;;;;;;;;5028155;28;19987;-72
2022/05/18 08:15:05;;;;;;;;;;;;;;;;;;5030080;28;20015;-71
2022/05/18 08:15:05;;;;;;;;;;;;;;;;;;5028499;28;20331;-70
2022/05/18 08:17:31;;;;;;;;;;;;;;;;;;5026665;28;19932;-72
2022/05/18 08:19:57;;;;;;;;;;;;;;;;;;5041855;28;20059;-70
2022/05/18 08:22:23;;;;;;;;;;;;;;;;;;5026867;28;19944;-70
2022/05/18 08:24:49;;;;;;;;;;;;;;;;;;5029667;28;19921;-70
2022/05/18 08:27:16;;;;;;;;;;;;;;;;;;5027838;28;19925;-70
2022/05/18 08:29:42;;;;;;;;;;;;;;;;;;5026567;28;19932;-69
2022/05/18 08:32:08;;;;;;;;;;;;;;;;;;5027414;28;20016;-69
2022/05/18 08:34:34;;;;;;;;;;;;;;;;;;5040928;28;19929;-70
2022/05/18 08:37:00;;;;;;;;;;;;;;;;;;5031763;28;19929;-70
2022/05/18 08:39:26;;;;;;;;;;;;;;;;;;5030072;28;20011;-70
2022/05/18 08:41:52;;;;;;;;;;;;;;;;;;5031180;28;20051;-71
2022/05/18 08:44:18;;;;;;;;;;;;;;;;;;5027737;28;20361;-69
2022/05/18 08:46:44;;;;;;;;;;;;;;;;;;5009260;28;19985;-70
2022/05/18 08:49:10;;;;;;;;;;;;;;;;;;5028038;28;19925;-70
2022/05/18 08:51:37;;;;;;;;;;;;;;;;;;5033708;28;20565;-70
2022/05/18 08:54:04;;;;;;;;;;;;;;;;;;5031611;28;19960;-70
2022/05/18 08:56:31;;;;;;;;;;;;;;;;;;5032035;28;19932;-70
2022/05/18 08:58:57;;;;;;;;;;;;;;;;;;5030741;28;20356;-69
2022/05/18 09:01:23;;;;;;;;;;;;;;;;;;5029565;28;19979;-68
2022/05/18 09:03:49;;;;;;;;;;;;;;;;;;5032788;28;19971;-68
2022/05/18 09:06:15;;;;;;;;;;;;;;;;;;5030731;28;19929;-70
2022/05/18 09:08:41;;;;;;;;;;;;;;;;;;5030282;28;19932;-69
2022/05/18 09:11:07;;;;;;;;;;;;;;;;;;5028314;28;19925;-66
2022/05/18 09:13:33;;;;;;;;;;;;;;;;;;5031008;28;19925;-67
2022/05/18 09:15:59;;;;;;;;;;;;;;;;;;5031211;28;20040;-67
2022/05/18 09:18:25;;;;;;;;;;;;;;;;;;5029935;28;20553;-68
2022/05/18 09:20:51;;;;;;;;;;;;;;;;;;5032455;28;19925;-70
2022/05/18 09:23:17;;;;;;;;;;;;;;;;;;5031993;28;19940;-69
2022/05/18 09:25:43;;;;;;;;;;;;;;;;;;5031361;28;19955;-68
2022/05/18 09:28:09;;;;;;;;;;;;;;;;;;5027100;28;19948;-68
2022/05/18 09:30:35;;;;;;;;;;;;;;;;;;5029394;28;19921;-69
2022/05/18 09:33:06;;;;;;;;;;;;;;;;;;5029297;28;20083;-69
2022/05/18 09:35:32;;;;;;;;;;;;;;;;;;5030407;28;19932;-68
2022/05/18 09:37:58;;;;;;;;;;;;;;;;;;5030674;28;19928;-67
2022/05/18 09:40:24;;;;;;;;;;;;;;;;;;5028545;28;19936;-68
2022/05/18 09:42:50;;;;;;;;;;;;;;;;;;5031285;28;19932;-68
2022/05/18 09:45:16;;;;;;;;;;;;;;;;;;5030266;28;19968;-68
2022/05/18 09:47:42;;;;;;;;;;;;;;;;;;5029887;28;19964;-67
2022/05/18 09:50:08;;;;;;;;;;;;;;;;;;5028095;28;19932;-69
2022/05/18 09:52:37;;;;;;;;;;;;;;;;;;5031738;28;20283;-68
2022/05/18 09:55:03;;;;;;;;;;;;;;;;;;5022858;28;20447;-68
2022/05/18 09:57:29;;;;;;;;;;;;;;;;;;5030051;28;19953;-70
2022/05/18 09:59:57;;;;;;;;;;;;;;;;;;5028213;28;19949;-67
2022/05/18 10:07:52;;;;;;;;;;;;;;;;;;5042189;28;20315;-68
2022/05/18 10:10:18;;;;;;;;;;;;;;;;;;5028931;28;19925;-67
2022/05/18 10:12:46;;;;;;;;;;;;;;;;;;5028846;28;20020;-68
2022/05/18 10:15:12;;;;;;;;;;;;;;;;;;5029221;28;19924;-68
2022/05/18 10:17:38;;;;;;;;;;;;;;;;;;5032048;28;20356;-68
2022/05/18 10:20:06;;;;;;;;;;;;;;;;;;5045624;28;20012;-68
2022/05/18 10:22:33;;;;;;;;;;;;;;;;;;5030497;28;19936;-69
2022/05/18 10:24:59;;;;;;;;;;;;;;;;;;5026097;28;20047;-68
2022/05/18 10:27:25;;;;;;;;;;;;;;;;;;5029818;28;20050;-68
2022/05/18 10:29:51;;;;;;;;;;;;;;;;;;5031620;28;19928;-67
2022/05/18 10:32:17;;;;;;;;;;;;;;;;;;5030601;28;19932;-69
2022/05/18 10:34:43;;;;;;;;;;;;;;;;;;5028583;28;20508;-72
2022/05/18 10:37:09;;;;;;;;;;;;;;;;;;5025708;28;19975;-69
2022/05/18 10:39:35;;;;;;;;;;;;;;;;;;5027620;28;19929;-70
2022/05/18 10:42:01;;;;;;;;;;;;;;;;;;5030003;28;20012;-69
2022/05/18 10:44:27;;;;;;;;;;;;;;;;;;5031261;28;20342;-69
2022/05/18 10:46:54;;;;;;;;;;;;;;;;;;5031076;28;19929;-69
2022/05/18 10:49:20;;;;;;;;;;;;;;;;;;5030692;28;20322;-69
2022/05/18 10:51:46;;;;;;;;;;;;;;;;;;5031726;28;20015;-69
2022/05/18 10:54:12;;;;;;;;;;;;;;;;;;5031687;28;19978;-69
2022/05/18 10:56:38;;;;;;;;;;;;;;;;;;5030847;28;19925;-69
2022/05/18 10:59:04;;;;;;;;;;;;;;;;;;5030278;28;20083;-69
2022/05/18 11:01:30;;;;;;;;;;;;;;;;;;5030374;28;19971;-69
2022/05/18 11:03:55;;;;;;;;;;;;;;;;;;5031271;28;19983;-68
2022/05/18 11:06:21;;;;;;;;;;;;;;;;;;5028594;28;19929;-69
2022/05/18 11:08:47;;;;;;;;;;;;;;;;;;5031334;28;19925;-70
2022/05/18 11:11:13;;;;;;;;;;;;;;;;;;5029859;28;19932;-69
2022/05/18 11:13:39;;;;;;;;;;;;;;;;;;5029934;28;20016;-68
2022/05/18 11:16:05;;;;;;;;;;;;;;;;;;5031391;28;20308;-68
2022/05/18 11:18:31;;;;;;;;;;;;;;;;;;5045279;28;19925;-70
2022/05/18 11:20:57;;;;;;;;;;;;;;;;;;5030618;28;19921;-69
2022/05/18 11:23:23;;;;;;;;;;;;;;;;;;5030245;28;19936;-69
2022/05/18 11:25:49;;;;;;;;;;;;;;;;;;5030953;28;20367;-69
2022/05/18 11:28:15;;;;;;;;;;;;;;;;;;5031111;28;19928;-69
2022/05/18 11:30:41;;;;;;;;;;;;;;;;;;5031153;28;20888;-70
2022/05/18 11:33:07;;;;;;;;;;;;;;;;;;5030067;28;19936;-69
2022/05/18 11:35:34;;;;;;;;;;;;;;;;;;5030613;28;19932;-69
2022/05/18 11:38:00;;;;;;;;;;;;;;;;;;5031628;28;19983;-70
2022/05/18 11:40:26;;;;;;;;;;;;;;;;;;5028565;28;20702;-70
2022/05/18 11:42:52;;;;;;;;;;;;;;;;;;5030745;28;19983;-69
2022/05/18 11:45:19;;;;;;;;;;;;;;;;;;5030599;28;20008;-69
2022/05/18 11:47:45;;;;;;;;;;;;;;;;;;5030467;28;19929;-70
2022/05/18 11:50:11;;;;;;;;;;;;;;;;;;5031726;28;19921;-70
2022/05/18 11:52:36;;;;;;;;;;;;;;;;;;5046078;28;19987;-70
2022/05/18 11:55:02;;;;;;;;;;;;;;;;;;5030558;28;19940;-69
2022/05/18 11:57:28;;;;;;;;;;;;;;;;;;5031719;28;19944;-69
2022/05/18 11:59:57;;;;;;;;;;;;;;;;;;5027039;28;20016;-70
2022/05/18 12:02:23;;;;;;;;;;;;;;;;;;5033559;28;19929;-70
2022/05/18 12:04:49;;;;;;;;;;;;;;;;;;5035536;28;19973;-71
2022/05/18 12:07:15;;;;;;;;;;;;;;;;;;5031351;28;19921;-70
2022/05/18 12:09:41;;;;;;;;;;;;;;;;;;5028865;28;19948;-69
2022/05/18 12:12:07;;;;;;;;;;;;;;;;;;5033143;28;19928;-69
2022/05/18 12:14:33;;;;;;;;;;;;;;;;;;5032627;28;20758;-68
2022/05/18 12:16:59;;;;;;;;;;;;;;;;;;5034186;28;19967;-69
2022/05/18 12:19:25;;;;;;;;;;;;;;;;;;5031697;28;19971;-68
2022/05/18 12:21:51;;;;;;;;;;;;;;;;;;5033173;28;19948;-69
2022/05/18 12:24:17;;;;;;;;;;;;;;;;;;5033810;28;19999;-70
2022/05/18 12:26:43;;;;;;;;;;;;;;;;;;5033855;28;19925;-68
2022/05/18 12:29:09;;;;;;;;;;;;;;;;;;5034071;28;19921;-69
2022/05/18 12:31:35;;;;;;;;;;;;;;;;;;5037691;28;19927;-68
2022/05/18 12:34:01;;;;;;;;;;;;;;;;;;5033458;28;19925;-68
2022/05/18 12:36:27;;;;;;;;;;;;;;;;;;5033751;28;19925;-69
2022/05/18 12:38:53;;;;;;;;;;;;;;;;;;5034495;28;19929;-68
2022/05/18 12:41:21;;;;;;;;;;;;;;;;;;5033483;28;19929;-68
2022/05/18 12:43:47;;;;;;;;;;;;;;;;;;5034515;28;19925;-69
2022/05/18 12:46:13;;;;;;;;;;;;;;;;;;5033227;28;19936;-69
2022/05/18 12:48:39;;;;;;;;;;;;;;;;;;5033756;28;19925;-68
2022/05/18 12:51:05;;;;;;;;;;;;;;;;;;5032523;28;19928;-68
2022/05/18 12:53:31;;;;;;;;;;;;;;;;;;5034025;28;19984;-67
2022/05/18 12:55:58;;;;;;;;;;;;;;;;;;5034309;28;20385;-68
2022/05/18 12:58:24;;;;;;;;;;;;;;;;;;5036155;28;19925;-67
2022/05/18 13:00:50;;;;;;;;;;;;;;;;;;5036171;28;19936;-70
2022/05/18 13:03:16;;;;;;;;;;;;;;;;;;5034128;28;19921;-71
2022/05/18 13:05:42;;;;;;;;;;;;;;;;;;5033957;28;20030;-71
2022/05/18 13:08:08;;;;;;;;;;;;;;;;;;5033077;28;19925;-71
2022/05/18 13:10:34;;;;;;;;;;;;;;;;;;5034452;28;20000;-71
2022/05/18 13:13:00;;;;;;;;;;;;;;;;;;5035007;28;19927;-71
2022/05/18 13:15:26;;;;;;;;;;;;;;;;;;5034873;28;20263;-71
2022/05/18 13:17:52;;;;;;;;;;;;;;;;;;5034250;28;20391;-70
2022/05/18 13:20:18;;;;;;;;;;;;;;;;;;5035077;28;20012;-70
2022/05/18 13:22:44;;;;;;;;;;;;;;;;;;5034097;28;19921;-71
2022/05/18 13:25:10;;;;;;;;;;;;;;;;;;5033202;28;19972;-71
2022/05/18 13:27:36;;;;;;;;;;;;;;;;;;5033757;28;19987;-71
2022/05/18 13:30:02;;;;;;;;;;;;;;;;;;5032380;28;19927;-70
2022/05/18 13:32:28;;;;;;;;;;;;;;;;;;5033618;28;20334;-71
2022/05/18 13:34:54;;;;;;;;;;;;;;;;;;5033982;28;19925;-71
2022/05/18 13:37:20;;;;;;;;;;;;;;;;;;5034331;28;19972;-71
2022/05/18 13:39:45;;;;;;;;;;;;;;;;;;5033061;28;19921;-69
2022/05/18 13:42:11;;;;;;;;;;;;;;;;;;5029228;28;19933;-68
2022/05/18 13:44:37;;;;;;;;;;;;;;;;;;5027380;28;19960;-69
2022/05/18 13:47:03;;;;;;;;;;;;;;;;;;5033481;28;19969;-69
2022/05/18 13:49:29;;;;;;;;;;;;;;;;;;5033282;28;19921;-69
2022/05/18 13:51:55;;;;;;;;;;;;;;;;;;5034251;28;20386;-69
2022/05/18 13:54:21;;;;;;;;;;;;;;;;;;5033223;28;19987;-69
2022/05/18 13:56:49;;;;;;;;;;;;;;;;;;5034043;28;19921;-69
2022/05/18 13:59:15;;;;;;;;;;;;;;;;;;5033485;28;20320;-69
2022/05/18 14:01:42;;;;;;;;;;;;;;;;;;5033001;28;20528;-69
2022/05/18 14:04:08;;;;;;;;;;;;;;;;;;5034038;28;20375;-69
2022/05/18 14:06:34;;;;;;;;;;;;;;;;;;5033757;28;19921;-69
2022/05/18 14:09:00;;;;;;;;;;;;;;;;;;5032356;28;19921;-69
2022/05/18 14:11:26;;;;;;;;;;;;;;;;;;5034032;28;19947;-69
2022/05/18 14:13:52;;;;;;;;;;;;;;;;;;5033256;28;19998;-68
2022/05/18 14:16:18;;;;;;;;;;;;;;;;;;5031806;28;20010;-68
2022/05/18 14:18:44;;;;;;;;;;;;;;;;;;5033537;28;20668;-68
2022/05/18 14:21:10;;;;;;;;;;;;;;;;;;5033844;28;19921;-68
2022/05/18 14:23:37;;;;;;;;;;;;;;;;;;5032814;28;20023;-68
2022/05/18 14:26:03;;;;;;;;;;;;;;;;;;5033563;28;20225;-68
2022/05/18 14:28:29;;;;;;;;;;;;;;;;;;5033073;28;19927;-68
2022/05/18 14:30:55;;;;;;;;;;;;;;;;;;5032933;28;20375;-68
2022/05/18 14:33:21;;;;;;;;;;;;;;;;;;5031773;28;19979;-68
2022/05/18 14:35:47;;;;;;;;;;;;;;;;;;5033581;28;19944;-68
2022/05/18 14:38:13;;;;;;;;;;;;;;;;;;5047906;28;19928;-68
2022/05/18 14:40:39;;;;;;;;;;;;;;;;;;5032852;28;19986;-68
2022/05/18 14:43:05;;;;;;;;;;;;;;;;;;5033234;28;20701;-68
2022/05/18 14:45:31;;;;;;;;;;;;;;;;;;5031185;28;19929;-68
2022/05/18 14:47:57;;;;;;;;;;;;;;;;;;5033110;28;19921;-68
2022/05/18 14:50:23;;;;;;;;;;;;;;;;;;5033024;28;19987;-68
2022/05/18 14:52:49;;;;;;;;;;;;;;;;;;5032151;28;19925;-68
2022/05/18 14:55:15;;;;;;;;;;;;;;;;;;5032970;28;19925;-68
2022/05/18 14:57:41;;;;;;;;;;;;;;;;;;5048260;28;19956;-68
2022/05/18 15:00:07;;;;;;;;;;;;;;;;;;5032347;28;19955;-68
2022/05/18 15:02:33;;;;;;;;;;;;;;;;;;5031450;28;19925;-68
2022/05/18 15:04:59;;;;;;;;;;;;;;;;;;5033012;28;20078;-68
2022/05/18 15:07:25;;;;;;;;;;;;;;;;;;5032223;28;19921;-68
2022/05/18 15:09:51;;;;;;;;;;;;;;;;;;5031318;28;19925;-68
2022/05/18 15:12:17;;;;;;;;;;;;;;;;;;5031439;28;20065;-68
2022/05/18 15:14:44;;;;;;;;;;;;;;;;;;5031646;28;20475;-69
2022/05/18 15:17:10;;;;;;;;;;;;;;;;;;5031937;28;20379;-70
2022/05/18 15:19:36;;;;;;;;;;;;;;;;;;5048272;28;19928;-69
2022/05/18 15:22:02;;;;;;;;;;;;;;;;;;5047873;28;20020;-69
2022/05/18 15:24:28;;;;;;;;;;;;;;;;;;5047450;28;20071;-70
2022/05/18 15:26:54;;;;;;;;;;;;;;;;;;5032696;28;19968;-70
2022/05/18 15:29:20;;;;;;;;;;;;;;;;;;5031643;28;19921;-70
2022/05/18 15:31:46;;;;;;;;;;;;;;;;;;5030650;28;20003;-69
2022/05/18 15:34:12;;;;;;;;;;;;;;;;;;5032474;28;19929;-69
2022/05/18 15:36:38;;;;;;;;;;;;;;;;;;5031565;28;19921;-69
2022/05/18 15:39:04;;;;;;;;;;;;;;;;;;5030950;28;19964;-69
2022/05/18 15:41:30;;;;;;;;;;;;;;;;;;5032093;28;19963;-69
2022/05/18 15:43:56;;;;;;;;;;;;;;;;;;5030578;28;19947;-69
2022/05/18 15:46:21;;;;;;;;;;;;;;;;;;5031815;28;19931;-69
2022/05/18 15:48:48;;;;;;;;;;;;;;;;;;5031002;28;19928;-69
2022/05/18 15:51:14;;;;;;;;;;;;;;;;;;5032591;28;20590;-69
2022/05/18 15:53:40;;;;;;;;;;;;;;;;;;5030226;28;19925;-69
2022/05/18 15:56:06;;;;;;;;;;;;;;;;;;5030866;28;19928;-69
2022/05/18 15:58:32;;;;;;;;;;;;;;;;;;5030739;28;19932;-69
2022/05/18 16:00:58;;;;;;;;;;;;;;;;;;5031747;28;20364;-69
2022/05/18 16:03:24;;;;;;;;;;;;;;;;;;5030733;28;19941;-69
2022/05/18 16:05:51;;;;;;;;;;;;;;;;;;5031115;28;19929;-69
2022/05/18 16:08:17;;;;;;;;;;;;;;;;;;5030146;28;20344;-69
2022/05/18 16:10:43;;;;;;;;;;;;;;;;;;5031122;28;20059;-69
2022/05/18 16:13:09;;;;;;;;;;;;;;;;;;5047696;28;19952;-69
2022/05/18 16:15:36;;;;;;;;;;;;;;;;;;5030108;28;19929;-69
2022/05/18 16:18:02;;;;;;;;;;;;;;;;;;5031161;28;19920;-69
2022/05/18 16:20:28;;;;;;;;;;;;;;;;;;5030984;28;20008;-69
2022/05/18 16:22:54;;;;;;;;;;;;;;;;;;5031622;28;19987;-70
2022/05/18 16:25:20;;;;;;;;;;;;;;;;;;5030815;28;19925;-70
2022/05/18 16:27:46;;;;;;;;;;;;;;;;;;5014359;28;20063;-70
2022/05/18 16:30:12;;;;;;;;;;;;;;;;;;5030352;28;19998;-70
2022/05/18 16:32:38;;;;;;;;;;;;;;;;;;5032019;28;19920;-69
2022/05/18 16:35:04;;;;;;;;;;;;;;;;;;5030813;28;19983;-69
2022/05/18 16:37:30;;;;;;;;;;;;;;;;;;5030049;28;20015;-69
2022/05/18 16:39:55;;;;;;;;;;;;;;;;;;5030168;28;20039;-69
2022/05/18 16:42:22;;;;;;;;;;;;;;;;;;5030703;28;19928;-70
2022/05/18 16:44:47;;;;;;;;;;;;;;;;;;5031792;28;19944;-69
2022/05/18 16:47:13;;;;;;;;;;;;;;;;;;5030642;28;19925;-69
2022/05/18 16:49:40;;;;;;;;;;;;;;;;;;5030945;28;19929;-69
2022/05/18 16:52:06;;;;;;;;;;;;;;;;;;5030168;28;19928;-69